sensor_id;sensor_type;location;lat;lon;timestamp;temperature;humidity
19493;DHT22;9887;54.366;10.958;2023-12-20T00:01:23;7.00;99.90
19493;DHT22;9887;54.366;10.958;2023-12-20T00:03:51;7.00;99.90
19493;DHT22;9887;54.366;10.958;2023-12-20T00:06:19;7.00;99.90
19493;DHT22;9887;54.366;10.958;2023-12-20T00:08:49;7.00;99.90
19493;DHT22;9887;54.366;10.958;2023-12-20T00:11:20;6.90;99.90
19493;DHT22;9887;54.366;10.958;2023-12-20T00:13:48;6.90;99.90
19493;DHT22;9887;54.366;10.958;2023-12-20T00:16:17;6.90;99.90
19493;DHT22;9887;54.366;10.958;2023-12-20T00:18:46;6.90;99.90
19493;DHT22;9887;54.366;10.958;2023-12-20T00:21:14;6.90;99.90
19493;DHT22;9887;54.366;10.958;2023-12-20T00:23:42;6.90;99.90
19493;DHT22;9887;54.366;10.958;2023-12-20T00:26:11;6.90;99.90
19493;DHT22;9887;54.366;10.958;2023-12-20T00:28:39;6.80;99.90
19493;DHT22;9887;54.366;10.958;2023-12-20T00:31:09;6.80;99.90
19493;DHT22;9887;54.366;10.958;2023-12-20T00:33:38;6.80;99.90
19493;DHT22;9887;54.366;10.958;2023-12-20T00:36:10;6.80;99.90
19493;DHT22;9887;54.366;10.958;2023-12-20T00:38:39;6.80;99.90
19493;DHT22;9887;54.366;10.958;2023-12-20T00:41:07;6.80;99.90
19493;DHT22;9887;54.366;10.958;2023-12-20T00:43:36;6.80;99.90
19493;DHT22;9887;54.366;10.958;2023-12-20T00:46:07;6.80;99.90
19493;DHT22;9887;54.366;10.958;2023-12-20T00:48:35;6.70;99.90
19493;DHT22;9887;54.366;10.958;2023-12-20T00:51:03;6.70;99.90
19493;DHT22;9887;54.366;10.958;2023-12-20T00:53:31;6.70;99.90
19493;DHT22;9887;54.366;10.958;2023-12-20T00:55:59;6.70;99.90
19493;DHT22;9887;54.366;10.958;2023-12-20T00:58:27;6.70;99.90
19493;DHT22;9887;54.366;10.958;2023-12-20T01:00:57;6.70;99.90
19493;DHT22;9887;54.366;10.958;2023-12-20T01:03:25;6.70;99.90
19493;DHT22;9887;54.366;10.958;2023-12-20T01:05:53;6.70;99.90
19493;DHT22;9887;54.366;10.958;2023-12-20T01:08:21;6.70;99.90
19493;DHT22;9887;54.366;10.958;2023-12-20T01:10:49;6.60;99.90
19493;DHT22;9887;54.366;10.958;2023-12-20T01:13:17;6.60;99.90
19493;DHT22;9887;54.366;10.958;2023-12-20T01:15:45;6.60;99.90
19493;DHT22;9887;54.366;10.958;2023-12-20T01:18:15;6.60;99.90
19493;DHT22;9887;54.366;10.958;2023-12-20T01:20:43;6.60;99.90
19493;DHT22;9887;54.366;10.958;2023-12-20T01:23:11;6.60;99.90
19493;DHT22;9887;54.366;10.958;2023-12-20T01:25:39;6.60;99.90
19493;DHT22;9887;54.366;10.958;2023-12-20T01:28:07;6.50;99.90
19493;DHT22;9887;54.366;10.958;2023-12-20T01:30:35;6.50;99.90
19493;DHT22;9887;54.366;10.958;2023-12-20T01:33:04;6.50;99.90
19493;DHT22;9887;54.366;10.958;2023-12-20T01:35:33;6.50;99.90
19493;DHT22;9887;54.366;10.958;2023-12-20T01:38:01;6.50;99.90
19493;DHT22;9887;54.366;10.958;2023-12-20T01:40:29;6.50;99.90
19493;DHT22;9887;54.366;10.958;2023-12-20T01:43:00;6.50;99.90
19493;DHT22;9887;54.366;10.958;2023-12-20T01:45:28;6.50;99.90
19493;DHT22;9887;54.366;10.958;2023-12-20T01:47:57;6.50;99.90
19493;DHT22;9887;54.366;10.958;2023-12-20T01:50:26;6.40;99.90
19493;DHT22;9887;54.366;10.958;2023-12-20T01:52:57;6.40;99.90
19493;DHT22;9887;54.366;10.958;2023-12-20T01:55:27;6.40;99.90
19493;DHT22;9887;54.366;10.958;2023-12-20T01:57:57;6.40;99.90
19493;DHT22;9887;54.366;10.958;2023-12-20T02:00:27;6.40;99.90
19493;DHT22;9887;54.366;10.958;2023-12-20T02:02:55;6.40;99.90
19493;DHT22;9887;54.366;10.958;2023-12-20T02:05:29;6.40;99.90
19493;DHT22;9887;54.366;10.958;2023-12-20T02:07:58;6.40;99.90
19493;DHT22;9887;54.366;10.958;2023-12-20T02:10:27;6.40;99.90
19493;DHT22;9887;54.366;10.958;2023-12-20T02:12:55;6.40;99.90
19493;DHT22;9887;54.366;10.958;2023-12-20T02:15:24;6.40;99.90
19493;DHT22;9887;54.366;10.958;2023-12-20T02:17:52;6.40;99.90
19493;DHT22;9887;54.366;10.958;2023-12-20T02:20:20;6.40;99.90
19493;DHT22;9887;54.366;10.958;2023-12-20T02:22:49;6.40;99.90
19493;DHT22;9887;54.366;10.958;2023-12-20T02:25:17;6.40;99.90
19493;DHT22;9887;54.366;10.958;2023-12-20T02:27:45;6.40;99.90
19493;DHT22;9887;54.366;10.958;2023-12-20T02:30:14;6.40;99.90
19493;DHT22;9887;54.366;10.958;2023-12-20T02:32:42;6.40;99.90
19493;DHT22;9887;54.366;10.958;2023-12-20T02:35:10;6.40;99.90
19493;DHT22;9887;54.366;10.958;2023-12-20T02:37:38;6.40;99.90
19493;DHT22;9887;54.366;10.958;2023-12-20T02:40:08;6.40;99.90
19493;DHT22;9887;54.366;10.958;2023-12-20T02:42:37;6.40;99.90
19493;DHT22;9887;54.366;10.958;2023-12-20T02:45:06;6.30;99.90
19493;DHT22;9887;54.366;10.958;2023-12-20T02:47:35;6.40;99.90
19493;DHT22;9887;54.366;10.958;2023-12-20T02:50:03;6.30;99.90
19493;DHT22;9887;54.366;10.958;2023-12-20T02:52:32;6.30;99.90
19493;DHT22;9887;54.366;10.958;2023-12-20T02:55:00;6.40;99.90
19493;DHT22;9887;54.366;10.958;2023-12-20T02:57:30;6.40;99.90
19493;DHT22;9887;54.366;10.958;2023-12-20T03:00:00;6.30;99.90
19493;DHT22;9887;54.366;10.958;2023-12-20T03:02:29;6.40;99.90
19493;DHT22;9887;54.366;10.958;2023-12-20T03:04:57;6.40;99.90
19493;DHT22;9887;54.366;10.958;2023-12-20T03:07:27;6.30;99.90
19493;DHT22;9887;54.366;10.958;2023-12-20T03:09:55;6.40;99.90
19493;DHT22;9887;54.366;10.958;2023-12-20T03:12:43;6.40;99.90
19493;DHT22;9887;54.366;10.958;2023-12-20T03:15:11;6.40;99.90
19493;DHT22;9887;54.366;10.958;2023-12-20T03:17:39;6.40;99.90
19493;DHT22;9887;54.366;10.958;2023-12-20T03:20:08;6.40;99.90
19493;DHT22;9887;54.366;10.958;2023-12-20T03:22:37;6.40;99.90
19493;DHT22;9887;54.366;10.958;2023-12-20T03:25:08;6.40;99.90
19493;DHT22;9887;54.366;10.958;2023-12-20T03:27:37;6.40;99.90
19493;DHT22;9887;54.366;10.958;2023-12-20T03:30:08;6.40;99.90
19493;DHT22;9887;54.366;10.958;2023-12-20T03:32:37;6.40;99.90
19493;DHT22;9887;54.366;10.958;2023-12-20T03:35:06;6.40;99.90
19493;DHT22;9887;54.366;10.958;2023-12-20T03:37:34;6.40;99.90
19493;DHT22;9887;54.366;10.958;2023-12-20T03:40:03;6.40;99.90
19493;DHT22;9887;54.366;10.958;2023-12-20T03:42:35;6.40;99.90
19493;DHT22;9887;54.366;10.958;2023-12-20T03:45:03;6.30;99.90
19493;DHT22;9887;54.366;10.958;2023-12-20T03:47:33;6.40;99.90
19493;DHT22;9887;54.366;10.958;2023-12-20T03:50:03;6.40;99.90
19493;DHT22;9887;54.366;10.958;2023-12-20T03:52:32;6.40;99.90
19493;DHT22;9887;54.366;10.958;2023-12-20T03:55:00;6.40;99.90
19493;DHT22;9887;54.366;10.958;2023-12-20T03:57:29;6.40;99.90
19493;DHT22;9887;54.366;10.958;2023-12-20T03:59:57;6.40;99.90
19493;DHT22;9887;54.366;10.958;2023-12-20T04:02:24;6.40;99.90
19493;DHT22;9887;54.366;10.958;2023-12-20T04:04:54;6.40;99.90
19493;DHT22;9887;54.366;10.958;2023-12-20T04:07:22;6.40;99.90
19493;DHT22;9887;54.366;10.958;2023-12-20T04:09:50;6.30;99.90
19493;DHT22;9887;54.366;10.958;2023-12-20T04:12:18;6.40;99.90
19493;DHT22;9887;54.366;10.958;2023-12-20T04:14:46;6.30;99.90
19493;DHT22;9887;54.366;10.958;2023-12-20T04:17:15;6.30;99.90
19493;DHT22;9887;54.366;10.958;2023-12-20T04:19:43;6.40;99.90
19493;DHT22;9887;54.366;10.958;2023-12-20T04:22:13;6.30;99.90
19493;DHT22;9887;54.366;10.958;2023-12-20T04:24:41;6.30;99.90
19493;DHT22;9887;54.366;10.958;2023-12-20T04:27:09;6.30;99.90
19493;DHT22;9887;54.366;10.958;2023-12-20T04:29:37;6.30;99.90
19493;DHT22;9887;54.366;10.958;2023-12-20T04:32:06;6.40;99.90
19493;DHT22;9887;54.366;10.958;2023-12-20T04:34:34;6.30;99.90
19493;DHT22;9887;54.366;10.958;2023-12-20T04:37:02;6.30;99.90
19493;DHT22;9887;54.366;10.958;2023-12-20T04:39:31;6.30;99.90
19493;DHT22;9887;54.366;10.958;2023-12-20T04:41:59;6.30;99.90
19493;DHT22;9887;54.366;10.958;2023-12-20T04:44:29;6.40;99.90
19493;DHT22;9887;54.366;10.958;2023-12-20T04:46:58;6.40;99.90
19493;DHT22;9887;54.366;10.958;2023-12-20T04:49:26;6.30;99.90
19493;DHT22;9887;54.366;10.958;2023-12-20T04:51:54;6.40;99.90
19493;DHT22;9887;54.366;10.958;2023-12-20T04:54:22;6.30;99.90
19493;DHT22;9887;54.366;10.958;2023-12-20T04:56:51;6.40;99.90
19493;DHT22;9887;54.366;10.958;2023-12-20T04:59:20;6.40;99.90
19493;DHT22;9887;54.366;10.958;2023-12-20T05:01:49;6.40;99.90
19493;DHT22;9887;54.366;10.958;2023-12-20T05:04:17;6.30;99.90
19493;DHT22;9887;54.366;10.958;2023-12-20T05:06:45;6.40;99.90
19493;DHT22;9887;54.366;10.958;2023-12-20T05:09:13;6.40;99.90
19493;DHT22;9887;54.366;10.958;2023-12-20T05:11:41;6.40;99.90
19493;DHT22;9887;54.366;10.958;2023-12-20T05:14:10;6.40;99.90
19493;DHT22;9887;54.366;10.958;2023-12-20T05:16:38;6.40;99.90
19493;DHT22;9887;54.366;10.958;2023-12-20T05:19:06;6.40;99.90
19493;DHT22;9887;54.366;10.958;2023-12-20T05:21:34;6.40;99.90
19493;DHT22;9887;54.366;10.958;2023-12-20T05:24:02;6.40;99.90
19493;DHT22;9887;54.366;10.958;2023-12-20T05:26:31;6.40;99.90
19493;DHT22;9887;54.366;10.958;2023-12-20T05:28:58;6.40;99.90
19493;DHT22;9887;54.366;10.958;2023-12-20T05:31:28;6.40;99.90
19493;DHT22;9887;54.366;10.958;2023-12-20T05:33:55;6.40;99.90
19493;DHT22;9887;54.366;10.958;2023-12-20T05:36:24;6.40;99.90
19493;DHT22;9887;54.366;10.958;2023-12-20T05:38:51;6.40;99.90
19493;DHT22;9887;54.366;10.958;2023-12-20T05:41:19;6.40;99.90
19493;DHT22;9887;54.366;10.958;2023-12-20T05:43:48;6.40;99.90
19493;DHT22;9887;54.366;10.958;2023-12-20T05:46:16;6.40;99.90
19493;DHT22;9887;54.366;10.958;2023-12-20T05:48:45;6.40;99.90
19493;DHT22;9887;54.366;10.958;2023-12-20T05:51:13;6.40;99.90
19493;DHT22;9887;54.366;10.958;2023-12-20T05:53:41;6.40;99.90
19493;DHT22;9887;54.366;10.958;2023-12-20T05:56:09;6.40;99.90
19493;DHT22;9887;54.366;10.958;2023-12-20T05:58:38;6.40;99.90
19493;DHT22;9887;54.366;10.958;2023-12-20T06:01:06;6.40;99.90
19493;DHT22;9887;54.366;10.958;2023-12-20T06:03:35;6.40;99.90
19493;DHT22;9887;54.366;10.958;2023-12-20T06:06:07;6.40;99.90
19493;DHT22;9887;54.366;10.958;2023-12-20T06:08:43;6.40;99.90
19493;DHT22;9887;54.366;10.958;2023-12-20T06:11:11;6.40;99.90
19493;DHT22;9887;54.366;10.958;2023-12-20T06:13:40;6.40;99.90
19493;DHT22;9887;54.366;10.958;2023-12-20T06:16:08;6.40;99.90
19493;DHT22;9887;54.366;10.958;2023-12-20T06:18:36;6.40;99.90
19493;DHT22;9887;54.366;10.958;2023-12-20T06:21:10;6.40;99.90
19493;DHT22;9887;54.366;10.958;2023-12-20T06:23:40;6.40;99.90
19493;DHT22;9887;54.366;10.958;2023-12-20T06:26:09;6.40;99.90
19493;DHT22;9887;54.366;10.958;2023-12-20T06:28:36;6.40;99.90
19493;DHT22;9887;54.366;10.958;2023-12-20T06:31:08;6.40;99.90
19493;DHT22;9887;54.366;10.958;2023-12-20T06:33:36;6.40;99.90
19493;DHT22;9887;54.366;10.958;2023-12-20T06:36:04;6.40;99.90
19493;DHT22;9887;54.366;10.958;2023-12-20T06:38:34;6.40;99.90
19493;DHT22;9887;54.366;10.958;2023-12-20T06:41:02;6.40;99.90
19493;DHT22;9887;54.366;10.958;2023-12-20T06:43:30;6.40;99.90
19493;DHT22;9887;54.366;10.958;2023-12-20T06:46:15;6.40;99.90
19493;DHT22;9887;54.366;10.958;2023-12-20T06:48:44;6.40;99.90
19493;DHT22;9887;54.366;10.958;2023-12-20T06:51:13;6.40;99.90
19493;DHT22;9887;54.366;10.958;2023-12-20T06:53:43;6.40;99.90
19493;DHT22;9887;54.366;10.958;2023-12-20T06:56:11;6.40;99.90
19493;DHT22;9887;54.366;10.958;2023-12-20T06:58:43;6.40;99.90
19493;DHT22;9887;54.366;10.958;2023-12-20T07:01:11;6.40;99.90
19493;DHT22;9887;54.366;10.958;2023-12-20T07:03:40;6.40;99.90
19493;DHT22;9887;54.366;10.958;2023-12-20T07:06:08;6.40;99.90
19493;DHT22;9887;54.366;10.958;2023-12-20T07:08:36;6.40;99.90
19493;DHT22;9887;54.366;10.958;2023-12-20T07:11:06;6.40;99.90
19493;DHT22;9887;54.366;10.958;2023-12-20T07:13:34;6.40;99.90
19493;DHT22;9887;54.366;10.958;2023-12-20T07:16:03;6.40;99.90
19493;DHT22;9887;54.366;10.958;2023-12-20T07:18:31;6.40;99.90
19493;DHT22;9887;54.366;10.958;2023-12-20T07:20:59;6.40;99.90
19493;DHT22;9887;54.366;10.958;2023-12-20T07:23:27;6.40;99.90
19493;DHT22;9887;54.366;10.958;2023-12-20T07:25:55;6.40;99.90
19493;DHT22;9887;54.366;10.958;2023-12-20T07:28:24;6.40;99.90
19493;DHT22;9887;54.366;10.958;2023-12-20T07:30:52;6.40;99.90
19493;DHT22;9887;54.366;10.958;2023-12-20T07:33:20;6.40;99.90
19493;DHT22;9887;54.366;10.958;2023-12-20T07:35:49;6.40;99.90
19493;DHT22;9887;54.366;10.958;2023-12-20T07:38:18;6.40;99.90
19493;DHT22;9887;54.366;10.958;2023-12-20T07:40:46;6.40;99.90
19493;DHT22;9887;54.366;10.958;2023-12-20T07:43:15;6.40;99.90
19493;DHT22;9887;54.366;10.958;2023-12-20T07:45:44;6.40;99.90
19493;DHT22;9887;54.366;10.958;2023-12-20T07:48:12;6.40;99.90
19493;DHT22;9887;54.366;10.958;2023-12-20T07:50:41;6.40;99.90
19493;DHT22;9887;54.366;10.958;2023-12-20T07:53:09;6.40;99.90
19493;DHT22;9887;54.366;10.958;2023-12-20T07:55:37;6.40;99.90
19493;DHT22;9887;54.366;10.958;2023-12-20T07:58:06;6.40;99.90
19493;DHT22;9887;54.366;10.958;2023-12-20T08:00:34;6.40;99.90
19493;DHT22;9887;54.366;10.958;2023-12-20T08:03:04;6.40;99.90
19493;DHT22;9887;54.366;10.958;2023-12-20T08:05:32;6.40;99.90
19493;DHT22;9887;54.366;10.958;2023-12-20T08:08:00;6.40;99.90
19493;DHT22;9887;54.366;10.958;2023-12-20T08:10:28;6.40;99.90
19493;DHT22;9887;54.366;10.958;2023-12-20T08:12:56;6.40;99.90
19493;DHT22;9887;54.366;10.958;2023-12-20T08:15:24;6.40;99.90
19493;DHT22;9887;54.366;10.958;2023-12-20T08:17:53;6.30;99.90
19493;DHT22;9887;54.366;10.958;2023-12-20T08:20:22;6.40;99.90
19493;DHT22;9887;54.366;10.958;2023-12-20T08:23:06;6.40;99.90
19493;DHT22;9887;54.366;10.958;2023-12-20T08:25:34;6.40;99.90
19493;DHT22;9887;54.366;10.958;2023-12-20T08:28:02;6.40;99.90
19493;DHT22;9887;54.366;10.958;2023-12-20T08:30:31;6.40;99.90
19493;DHT22;9887;54.366;10.958;2023-12-20T08:33:01;6.40;99.90
19493;DHT22;9887;54.366;10.958;2023-12-20T08:35:31;6.40;99.90
19493;DHT22;9887;54.366;10.958;2023-12-20T08:37:59;6.40;99.90
19493;DHT22;9887;54.366;10.958;2023-12-20T08:40:27;6.40;99.90
19493;DHT22;9887;54.366;10.958;2023-12-20T08:42:56;6.40;99.90
19493;DHT22;9887;54.366;10.958;2023-12-20T08:45:24;6.40;99.90
19493;DHT22;9887;54.366;10.958;2023-12-20T08:47:53;6.40;99.90
19493;DHT22;9887;54.366;10.958;2023-12-20T08:50:24;6.40;99.90
19493;DHT22;9887;54.366;10.958;2023-12-20T08:52:53;6.40;99.90
19493;DHT22;9887;54.366;10.958;2023-12-20T08:55:21;6.40;99.90
19493;DHT22;9887;54.366;10.958;2023-12-20T08:57:49;6.40;99.90
19493;DHT22;9887;54.366;10.958;2023-12-20T09:00:18;6.40;99.90
19493;DHT22;9887;54.366;10.958;2023-12-20T09:02:48;6.40;99.90
19493;DHT22;9887;54.366;10.958;2023-12-20T09:05:16;6.40;99.90
19493;DHT22;9887;54.366;10.958;2023-12-20T09:07:44;6.40;99.90
19493;DHT22;9887;54.366;10.958;2023-12-20T09:10:13;6.40;99.90
19493;DHT22;9887;54.366;10.958;2023-12-20T09:12:45;6.40;99.90
19493;DHT22;9887;54.366;10.958;2023-12-20T09:15:14;6.40;99.90
19493;DHT22;9887;54.366;10.958;2023-12-20T09:17:43;6.40;99.90
19493;DHT22;9887;54.366;10.958;2023-12-20T09:20:11;6.40;99.90
19493;DHT22;9887;54.366;10.958;2023-12-20T09:22:41;6.40;99.90
19493;DHT22;9887;54.366;10.958;2023-12-20T09:25:10;6.40;99.90
19493;DHT22;9887;54.366;10.958;2023-12-20T09:27:40;6.40;99.90
19493;DHT22;9887;54.366;10.958;2023-12-20T09:30:09;6.40;99.90
19493;DHT22;9887;54.366;10.958;2023-12-20T09:32:51;6.40;99.90
19493;DHT22;9887;54.366;10.958;2023-12-20T09:35:19;6.40;99.90
19493;DHT22;9887;54.366;10.958;2023-12-20T09:37:47;6.40;99.90
19493;DHT22;9887;54.366;10.958;2023-12-20T09:40:18;6.40;99.90
19493;DHT22;9887;54.366;10.958;2023-12-20T09:42:56;6.50;99.90
19493;DHT22;9887;54.366;10.958;2023-12-20T09:45:25;6.40;99.90
19493;DHT22;9887;54.366;10.958;2023-12-20T09:47:54;6.40;99.90
19493;DHT22;9887;54.366;10.958;2023-12-20T09:50:22;6.50;99.90
19493;DHT22;9887;54.366;10.958;2023-12-20T09:52:53;6.50;99.90
19493;DHT22;9887;54.366;10.958;2023-12-20T09:55:25;6.50;99.90
19493;DHT22;9887;54.366;10.958;2023-12-20T09:57:54;6.40;99.90
19493;DHT22;9887;54.366;10.958;2023-12-20T10:00:22;6.40;99.90
19493;DHT22;9887;54.366;10.958;2023-12-20T10:02:55;6.50;99.90
19493;DHT22;9887;54.366;10.958;2023-12-20T10:05:27;6.50;99.90
19493;DHT22;9887;54.366;10.958;2023-12-20T10:07:55;6.50;99.90
19493;DHT22;9887;54.366;10.958;2023-12-20T10:10:23;6.50;99.90
19493;DHT22;9887;54.366;10.958;2023-12-20T10:13:10;6.50;99.90
19493;DHT22;9887;54.366;10.958;2023-12-20T10:15:39;6.50;99.90
19493;DHT22;9887;54.366;10.958;2023-12-20T10:18:08;6.50;99.90
19493;DHT22;9887;54.366;10.958;2023-12-20T10:20:37;6.50;99.90
19493;DHT22;9887;54.366;10.958;2023-12-20T10:23:08;6.50;99.90
19493;DHT22;9887;54.366;10.958;2023-12-20T10:25:36;6.50;99.90
19493;DHT22;9887;54.366;10.958;2023-12-20T10:28:13;6.50;99.90
19493;DHT22;9887;54.366;10.958;2023-12-20T10:30:42;6.50;99.90
19493;DHT22;9887;54.366;10.958;2023-12-20T10:33:10;6.50;99.90
19493;DHT22;9887;54.366;10.958;2023-12-20T10:35:39;6.50;99.90
19493;DHT22;9887;54.366;10.958;2023-12-20T10:38:12;6.50;99.90
19493;DHT22;9887;54.366;10.958;2023-12-20T10:40:42;6.50;99.90
19493;DHT22;9887;54.366;10.958;2023-12-20T10:43:12;6.50;99.90
19493;DHT22;9887;54.366;10.958;2023-12-20T10:45:42;6.50;99.90
19493;DHT22;9887;54.366;10.958;2023-12-20T10:48:10;6.50;99.90
19493;DHT22;9887;54.366;10.958;2023-12-20T10:50:39;6.50;99.90
19493;DHT22;9887;54.366;10.958;2023-12-20T10:53:08;6.60;99.90
19493;DHT22;9887;54.366;10.958;2023-12-20T10:55:36;6.60;99.90
19493;DHT22;9887;54.366;10.958;2023-12-20T10:58:07;6.50;99.90
19493;DHT22;9887;54.366;10.958;2023-12-20T11:00:39;6.60;99.90
19493;DHT22;9887;54.366;10.958;2023-12-20T11:03:10;6.60;99.90
19493;DHT22;9887;54.366;10.958;2023-12-20T11:05:44;6.60;99.90
19493;DHT22;9887;54.366;10.958;2023-12-20T11:08:20;6.60;99.90
19493;DHT22;9887;54.366;10.958;2023-12-20T11:10:55;6.60;99.90
19493;DHT22;9887;54.366;10.958;2023-12-20T11:13:30;6.60;99.90
19493;DHT22;9887;54.366;10.958;2023-12-20T11:16:01;6.60;99.90
19493;DHT22;9887;54.366;10.958;2023-12-20T11:18:30;6.60;99.90
19493;DHT22;9887;54.366;10.958;2023-12-20T11:21:01;6.60;99.90
19493;DHT22;9887;54.366;10.958;2023-12-20T11:23:30;6.60;99.90
19493;DHT22;9887;54.366;10.958;2023-12-20T11:26:02;6.60;99.90
19493;DHT22;9887;54.366;10.958;2023-12-20T11:28:30;6.60;99.90
19493;DHT22;9887;54.366;10.958;2023-12-20T11:31:01;6.60;99.90
19493;DHT22;9887;54.366;10.958;2023-12-20T11:33:32;6.60;99.90
19493;DHT22;9887;54.366;10.958;2023-12-20T11:36:03;6.60;99.90
19493;DHT22;9887;54.366;10.958;2023-12-20T11:38:36;6.60;99.90
19493;DHT22;9887;54.366;10.958;2023-12-20T11:41:07;6.60;99.90
19493;DHT22;9887;54.366;10.958;2023-12-20T11:43:36;6.60;99.90
19493;DHT22;9887;54.366;10.958;2023-12-20T11:46:07;6.70;99.90
19493;DHT22;9887;54.366;10.958;2023-12-20T11:48:37;6.70;99.90
19493;DHT22;9887;54.366;10.958;2023-12-20T11:51:09;6.60;99.90
19493;DHT22;9887;54.366;10.958;2023-12-20T11:53:38;6.60;99.90
19493;DHT22;9887;54.366;10.958;2023-12-20T11:56:06;6.70;99.90
19493;DHT22;9887;54.366;10.958;2023-12-20T11:58:34;6.70;99.90
19493;DHT22;9887;54.366;10.958;2023-12-20T12:01:03;6.60;99.90
19493;DHT22;9887;54.366;10.958;2023-12-20T12:03:33;6.70;99.90
19493;DHT22;9887;54.366;10.958;2023-12-20T12:06:01;6.70;99.90
19493;DHT22;9887;54.366;10.958;2023-12-20T12:08:31;6.70;99.90
19493;DHT22;9887;54.366;10.958;2023-12-20T12:11:00;6.70;99.90
19493;DHT22;9887;54.366;10.958;2023-12-20T12:13:31;6.70;99.90
19493;DHT22;9887;54.366;10.958;2023-12-20T12:15:59;6.70;99.90
19493;DHT22;9887;54.366;10.958;2023-12-20T12:18:27;6.70;99.90
19493;DHT22;9887;54.366;10.958;2023-12-20T12:21:01;6.70;99.90
19493;DHT22;9887;54.366;10.958;2023-12-20T12:23:38;6.70;99.90
19493;DHT22;9887;54.366;10.958;2023-12-20T12:26:06;6.70;99.90
19493;DHT22;9887;54.366;10.958;2023-12-20T12:28:35;6.70;99.90
19493;DHT22;9887;54.366;10.958;2023-12-20T12:31:03;6.70;99.90
19493;DHT22;9887;54.366;10.958;2023-12-20T12:33:32;6.70;99.90
19493;DHT22;9887;54.366;10.958;2023-12-20T12:36:01;6.70;99.90
19493;DHT22;9887;54.366;10.958;2023-12-20T12:38:32;6.70;99.90
19493;DHT22;9887;54.366;10.958;2023-12-20T12:41:00;6.70;99.90
19493;DHT22;9887;54.366;10.958;2023-12-20T12:43:28;6.70;99.90
19493;DHT22;9887;54.366;10.958;2023-12-20T12:45:57;6.70;99.90
19493;DHT22;9887;54.366;10.958;2023-12-20T12:48:25;6.70;99.90
19493;DHT22;9887;54.366;10.958;2023-12-20T12:50:54;6.70;99.90
19493;DHT22;9887;54.366;10.958;2023-12-20T12:53:27;6.70;99.90
19493;DHT22;9887;54.366;10.958;2023-12-20T12:55:55;6.70;99.90
19493;DHT22;9887;54.366;10.958;2023-12-20T12:58:23;6.70;99.90
19493;DHT22;9887;54.366;10.958;2023-12-20T13:00:52;6.70;99.90
19493;DHT22;9887;54.366;10.958;2023-12-20T13:03:20;6.70;99.90
19493;DHT22;9887;54.366;10.958;2023-12-20T13:05:48;6.70;99.90
19493;DHT22;9887;54.366;10.958;2023-12-20T13:08:16;6.70;99.90
19493;DHT22;9887;54.366;10.958;2023-12-20T13:10:46;6.70;99.90
19493;DHT22;9887;54.366;10.958;2023-12-20T13:13:14;6.70;99.90
19493;DHT22;9887;54.366;10.958;2023-12-20T13:15:42;6.70;99.90
19493;DHT22;9887;54.366;10.958;2023-12-20T13:18:15;6.70;99.90
19493;DHT22;9887;54.366;10.958;2023-12-20T13:20:43;6.70;99.90
19493;DHT22;9887;54.366;10.958;2023-12-20T13:23:11;6.70;99.90
19493;DHT22;9887;54.366;10.958;2023-12-20T13:25:39;6.70;99.90
19493;DHT22;9887;54.366;10.958;2023-12-20T13:28:08;6.70;99.90
19493;DHT22;9887;54.366;10.958;2023-12-20T13:30:36;6.70;99.90
19493;DHT22;9887;54.366;10.958;2023-12-20T13:33:05;6.70;99.90
19493;DHT22;9887;54.366;10.958;2023-12-20T13:35:34;6.70;99.90
19493;DHT22;9887;54.366;10.958;2023-12-20T13:38:03;6.60;99.90
19493;DHT22;9887;54.366;10.958;2023-12-20T13:40:31;6.60;99.90
19493;DHT22;9887;54.366;10.958;2023-12-20T13:42:59;6.60;99.90
19493;DHT22;9887;54.366;10.958;2023-12-20T13:45:28;6.60;99.90
19493;DHT22;9887;54.366;10.958;2023-12-20T13:47:56;6.60;99.90
19493;DHT22;9887;54.366;10.958;2023-12-20T13:50:25;6.60;99.90
19493;DHT22;9887;54.366;10.958;2023-12-20T13:52:54;6.60;99.90
19493;DHT22;9887;54.366;10.958;2023-12-20T13:55:22;6.60;99.90
19493;DHT22;9887;54.366;10.958;2023-12-20T13:57:52;6.60;99.90
19493;DHT22;9887;54.366;10.958;2023-12-20T14:00:22;6.60;99.90
19493;DHT22;9887;54.366;10.958;2023-12-20T14:02:51;6.60;99.90
19493;DHT22;9887;54.366;10.958;2023-12-20T14:05:19;6.60;99.90
19493;DHT22;9887;54.366;10.958;2023-12-20T14:07:52;6.60;99.90
19493;DHT22;9887;54.366;10.958;2023-12-20T14:10:20;6.60;99.90
19493;DHT22;9887;54.366;10.958;2023-12-20T14:12:48;6.60;99.90
19493;DHT22;9887;54.366;10.958;2023-12-20T14:15:16;6.60;99.90
19493;DHT22;9887;54.366;10.958;2023-12-20T14:17:45;6.60;99.90
19493;DHT22;9887;54.366;10.958;2023-12-20T14:20:15;6.60;99.90
19493;DHT22;9887;54.366;10.958;2023-12-20T14:22:43;6.60;99.90
19493;DHT22;9887;54.366;10.958;2023-12-20T14:25:12;6.50;99.90
19493;DHT22;9887;54.366;10.958;2023-12-20T14:27:40;6.50;99.90
19493;DHT22;9887;54.366;10.958;2023-12-20T14:30:11;6.50;99.90
19493;DHT22;9887;54.366;10.958;2023-12-20T14:32:42;6.50;99.90
19493;DHT22;9887;54.366;10.958;2023-12-20T14:35:10;6.50;99.90
19493;DHT22;9887;54.366;10.958;2023-12-20T14:37:40;6.50;99.90
19493;DHT22;9887;54.366;10.958;2023-12-20T14:40:10;6.50;99.90
19493;DHT22;9887;54.366;10.958;2023-12-20T14:42:42;6.40;99.90
19493;DHT22;9887;54.366;10.958;2023-12-20T14:45:11;6.50;99.90
19493;DHT22;9887;54.366;10.958;2023-12-20T14:47:40;6.40;99.90
19493;DHT22;9887;54.366;10.958;2023-12-20T14:50:08;6.40;99.90
19493;DHT22;9887;54.366;10.958;2023-12-20T14:52:37;6.40;99.90
19493;DHT22;9887;54.366;10.958;2023-12-20T14:55:07;6.40;99.90
19493;DHT22;9887;54.366;10.958;2023-12-20T14:57:36;6.40;99.90
19493;DHT22;9887;54.366;10.958;2023-12-20T15:00:08;6.40;99.90
19493;DHT22;9887;54.366;10.958;2023-12-20T15:02:36;6.40;99.90
19493;DHT22;9887;54.366;10.958;2023-12-20T15:05:05;6.40;99.90
19493;DHT22;9887;54.366;10.958;2023-12-20T15:07:35;6.40;99.90
19493;DHT22;9887;54.366;10.958;2023-12-20T15:10:03;6.30;99.90
19493;DHT22;9887;54.366;10.958;2023-12-20T15:12:33;6.30;99.90
19493;DHT22;9887;54.366;10.958;2023-12-20T15:15:01;6.30;99.90
19493;DHT22;9887;54.366;10.958;2023-12-20T15:17:31;6.30;99.90
19493;DHT22;9887;54.366;10.958;2023-12-20T15:19:59;6.30;99.90
19493;DHT22;9887;54.366;10.958;2023-12-20T15:22:28;6.30;99.90
19493;DHT22;9887;54.366;10.958;2023-12-20T15:24:57;6.30;99.90
19493;DHT22;9887;54.366;10.958;2023-12-20T15:27:25;6.30;99.90
19493;DHT22;9887;54.366;10.958;2023-12-20T15:29:55;6.20;99.90
19493;DHT22;9887;54.366;10.958;2023-12-20T15:32:23;6.20;99.90
19493;DHT22;9887;54.366;10.958;2023-12-20T15:34:50;6.20;99.90
19493;DHT22;9887;54.366;10.958;2023-12-20T15:37:19;6.20;99.90
19493;DHT22;9887;54.366;10.958;2023-12-20T15:39:47;6.20;99.90
19493;DHT22;9887;54.366;10.958;2023-12-20T15:42:15;6.20;99.90
19493;DHT22;9887;54.366;10.958;2023-12-20T15:44:43;6.20;99.90
19493;DHT22;9887;54.366;10.958;2023-12-20T15:47:12;6.20;99.90
19493;DHT22;9887;54.366;10.958;2023-12-20T15:49:40;6.20;99.90
19493;DHT22;9887;54.366;10.958;2023-12-20T15:52:08;6.20;99.90
19493;DHT22;9887;54.366;10.958;2023-12-20T15:54:36;6.20;99.90
19493;DHT22;9887;54.366;10.958;2023-12-20T15:57:06;6.10;99.90